createdAt,value
2023-05-19T00:03:04.490Z,8.79
2023-05-19T00:08:22.912Z,8.78
2023-05-19T00:13:32.471Z,8.73
2023-05-19T00:19:26.657Z,8.66
2023-05-19T00:24:41.614Z,8.60
2023-05-19T00:30:17.252Z,8.55
2023-05-19T00:35:50.034Z,8.50
2023-05-19T00:41:08.051Z,8.44
2023-05-19T00:46:11.134Z,8.39
2023-05-19T00:51:35.232Z,8.37
2023-05-19T00:57:39.416Z,8.34
2023-05-19T01:04:11.983Z,8.34
2023-05-19T01:09:58.950Z,8.32
2023-05-19T01:15:33.580Z,8.31
2023-05-19T01:21:02.689Z,8.32
2023-05-19T01:27:18.825Z,8.30
2023-05-19T01:33:08.405Z,8.28
2023-05-19T01:38:46.165Z,8.26
2023-05-19T01:44:06.675Z,8.22
2023-05-19T01:49:33.937Z,8.18
2023-05-19T01:54:57.295Z,8.16
2023-05-19T02:00:56.186Z,8.16
2023-05-19T02:07:11.308Z,8.18
2023-05-19T02:12:44.518Z,8.21
2023-05-19T02:18:11.874Z,8.19
2023-05-19T02:23:31.661Z,8.17
2023-05-19T02:29:20.858Z,8.16
2023-05-19T02:34:32.334Z,8.18
2023-05-19T02:40:15.576Z,8.17
2023-05-19T02:45:43.493Z,8.14
2023-05-19T02:51:12.019Z,8.14
2023-05-19T02:57:16.672Z,8.16
2023-05-19T03:02:45.961Z,8.16
2023-05-19T03:08:17.846Z,8.13
2023-05-19T03:13:46.526Z,8.12
2023-05-19T03:19:00.169Z,8.12
2023-05-19T03:24:26.359Z,8.12
2023-05-19T03:29:37.341Z,8.15
2023-05-19T03:34:53.032Z,8.20
2023-05-19T03:40:16.027Z,8.27
2023-05-19T03:45:53.029Z,8.37
2023-05-19T03:51:49.837Z,8.43
2023-05-19T03:57:34.538Z,8.50
2023-05-19T04:03:10.092Z,8.60
2023-05-19T04:08:51.466Z,8.65
2023-05-19T04:14:28.788Z,8.73
2023-05-19T04:19:59.216Z,8.84
2023-05-19T04:25:23.923Z,8.94
2023-05-19T04:31:01.659Z,9.00
2023-05-19T04:36:39.467Z,9.07
2023-05-19T04:41:59.462Z,9.12
2023-05-19T04:47:15.811Z,9.22
2023-05-19T04:52:36.923Z,9.33
2023-05-19T04:58:09.223Z,9.42
2023-05-19T05:03:55.322Z,9.39
2023-05-19T05:09:27.710Z,9.44
2023-05-19T05:14:46.635Z,9.50
2023-05-19T05:20:11.921Z,9.67
2023-05-19T05:25:39.405Z,9.89
2023-05-19T05:31:03.162Z,10.10
2023-05-19T05:36:30.737Z,10.27
2023-05-19T05:42:13.735Z,10.44
2023-05-19T05:47:59.092Z,10.53
2023-05-19T05:53:18.277Z,10.66
2023-05-19T05:58:47.683Z,10.69
2023-05-19T06:04:05.537Z,10.69
2023-05-19T06:09:12.452Z,10.76
2023-05-19T06:14:32.167Z,10.86
2023-05-19T06:20:24.552Z,10.97
2023-05-19T06:26:16.829Z,11.06
2023-05-19T06:31:41.109Z,11.20
2023-05-19T06:37:06.919Z,11.37
2023-05-19T06:43:11.804Z,11.47
2023-05-19T06:49:29.346Z,11.56
2023-05-19T06:54:56.785Z,11.63
2023-05-19T07:00:31.812Z,11.73
2023-05-19T07:06:29.736Z,11.83
2023-05-19T07:12:11.771Z,11.91
2023-05-19T07:17:35.273Z,12.00
2023-05-19T07:22:41.113Z,12.12
2023-05-19T07:27:52.420Z,12.23
2023-05-19T07:33:21.344Z,12.31
2023-05-19T07:38:37.545Z,12.27
2023-05-19T07:44:01.189Z,12.35
2023-05-19T07:49:15.808Z,12.47
2023-05-19T07:54:23.314Z,12.57
2023-05-19T07:59:32.194Z,12.80
2023-05-19T08:04:38.928Z,12.95
2023-05-19T08:09:55.448Z,13.26
2023-05-19T08:15:26.144Z,13.61
2023-05-19T08:20:48.759Z,13.80
2023-05-19T08:26:09.202Z,13.91
2023-05-19T08:31:16.853Z,13.98
2023-05-19T08:36:45.311Z,14.09
2023-05-19T08:42:07.968Z,14.18
2023-05-19T08:47:28.792Z,14.29
2023-05-19T08:53:41.901Z,14.73
2023-05-19T08:59:00.327Z,15.12
2023-05-19T09:04:17.425Z,15.21
2023-05-19T09:09:33.040Z,15.52
2023-05-19T09:15:01.277Z,15.89
2023-05-19T09:20:21.590Z,16.10
2023-05-19T09:25:27.498Z,16.14
2023-05-19T09:30:41.547Z,16.21
2023-05-19T09:36:00.731Z,16.21
2023-05-19T09:41:07.218Z,16.32
2023-05-19T09:46:26.662Z,16.23
2023-05-19T09:51:39.385Z,16.05
2023-05-19T09:57:27.756Z,15.89
2023-05-19T10:02:41.365Z,15.71
2023-05-19T10:08:02.980Z,15.74
2023-05-19T10:13:08.975Z,15.79
2023-05-19T10:18:21.863Z,15.80
2023-05-19T10:23:42.138Z,15.92
2023-05-19T10:29:00.621Z,16.09
2023-05-19T10:35:00.954Z,16.33
2023-05-19T10:40:30.358Z,16.66
2023-05-19T10:45:57.334Z,16.85
2023-05-19T10:51:49.992Z,17.02
2023-05-19T10:58:17.893Z,17.27
2023-05-19T11:04:10.584Z,17.43
2023-05-19T11:10:04.169Z,17.52
2023-05-19T11:15:58.417Z,17.68
2023-05-19T11:22:37.032Z,17.75
2023-05-19T11:28:32.436Z,17.71
2023-05-19T11:34:10.720Z,17.82
2023-05-19T11:39:47.268Z,17.92
2023-05-19T11:45:35.700Z,17.94
2023-05-19T11:50:56.842Z,17.71
2023-05-19T11:56:15.150Z,17.53
2023-05-19T12:01:43.508Z,17.47
2023-05-19T12:07:01.679Z,17.41
2023-05-19T12:12:45.233Z,17.34
2023-05-19T12:18:06.832Z,17.20
2023-05-19T12:23:32.578Z,17.16
2023-05-19T12:29:06.726Z,17.21
2023-05-19T12:34:26.354Z,17.13
2023-05-19T12:40:03.597Z,17.03
2023-05-19T12:45:27.858Z,16.92
2023-05-19T12:50:47.724Z,16.90
2023-05-19T12:56:25.197Z,16.93
2023-05-19T13:01:29.862Z,16.99
2023-05-19T13:06:33.744Z,17.05
2023-05-19T13:11:36.423Z,16.99
2023-05-19T13:16:43.599Z,17.05
2023-05-19T13:21:53.804Z,17.12
2023-05-19T13:27:32.776Z,17.12
2023-05-19T13:33:02.869Z,17.07
2023-05-19T13:38:34.474Z,16.96
2023-05-19T13:44:07.282Z,16.91
2023-05-19T13:49:32.918Z,16.98
2023-05-19T13:55:23.295Z,16.99
2023-05-19T14:00:45.107Z,16.99
2023-05-19T14:06:18.809Z,16.93
2023-05-19T14:11:28.349Z,16.61
2023-05-19T14:16:43.211Z,16.52
2023-05-19T14:22:06.830Z,16.65
2023-05-19T14:27:22.721Z,16.75
2023-05-19T14:32:31.310Z,16.79
2023-05-19T14:37:45.178Z,16.85
2023-05-19T14:42:55.769Z,16.94
2023-05-19T14:48:17.624Z,16.99
2023-05-19T14:53:40.343Z,17.01
2023-05-19T14:58:58.694Z,17.01
2023-05-19T15:04:33.033Z,17.03
2023-05-19T15:09:53.039Z,16.94
2023-05-19T15:15:06.366Z,16.85
2023-05-19T15:20:13.852Z,16.82
2023-05-19T15:25:44.092Z,16.73
2023-05-19T15:30:48.592Z,16.62
2023-05-19T15:36:11.229Z,16.55
2023-05-19T15:41:17.853Z,16.46
2023-05-19T15:46:44.373Z,16.32
2023-05-19T15:51:53.479Z,16.12
2023-05-19T15:57:02.411Z,16.00
2023-05-19T16:02:08.717Z,15.88
2023-05-19T16:07:14.435Z,15.80
2023-05-19T16:12:46.707Z,15.71
2023-05-19T16:18:01.336Z,15.62
2023-05-19T16:23:06.857Z,15.48
2023-05-19T16:28:24.986Z,15.33
2023-05-19T16:33:46.316Z,15.22
2023-05-19T16:38:58.808Z,15.07
2023-05-19T16:44:08.732Z,14.92
2023-05-19T16:49:25.084Z,14.76
2023-05-19T16:54:54.295Z,14.59
2023-05-19T16:59:56.836Z,14.49
2023-05-19T17:05:07.097Z,14.38
2023-05-19T17:10:38.524Z,14.27
2023-05-19T17:16:24.613Z,14.20
2023-05-19T17:21:43.054Z,14.10
2023-05-19T17:27:12.477Z,13.97
2023-05-19T17:33:11.013Z,13.87
2023-05-19T17:38:29.276Z,13.78
2023-05-19T17:43:44.593Z,13.71
2023-05-19T17:48:52.721Z,13.67
2023-05-19T17:54:26.340Z,13.59
2023-05-19T17:59:53.714Z,13.53
2023-05-19T18:05:21.568Z,13.47
2023-05-19T18:11:04.567Z,13.41
2023-05-19T18:16:31.507Z,13.34
2023-05-19T18:21:42.756Z,13.28
2023-05-19T18:26:59.480Z,13.23
2023-05-19T18:32:14.623Z,13.15
2023-05-19T18:37:31.540Z,13.05
2023-05-19T18:43:07.444Z,12.97
2023-05-19T18:48:33.624Z,12.90
2023-05-19T18:54:24.815Z,12.83
2023-05-19T18:59:32.255Z,12.75
2023-05-19T19:05:05.458Z,12.67
2023-05-19T19:10:16.188Z,12.62
2023-05-19T19:15:25.526Z,12.59
2023-05-19T19:20:47.107Z,12.57
2023-05-19T19:26:08.587Z,12.53
2023-05-19T19:31:14.383Z,12.47
2023-05-19T19:36:39.603Z,12.43
2023-05-19T19:42:18.618Z,12.39
2023-05-19T19:47:30.098Z,12.33
2023-05-19T19:52:42.453Z,12.27
2023-05-19T19:57:51.387Z,12.23
2023-05-19T20:08:09.747Z,12.15
2023-05-19T20:13:15.584Z,12.10
2023-05-19T20:18:34.297Z,12.06
2023-05-19T20:24:00.405Z,12.03
2023-05-19T20:29:11.325Z,11.98
2023-05-19T20:34:24.360Z,11.92
2023-05-19T20:39:53.451Z,11.89
2023-05-19T20:45:14.353Z,11.84
2023-05-19T20:50:21.762Z,11.78
2023-05-19T20:55:38.439Z,11.74
2023-05-19T21:01:04.564Z,11.69
2023-05-19T21:06:38.207Z,11.66
2023-05-19T21:11:48.986Z,11.64
2023-05-19T21:17:01.660Z,11.64
2023-05-19T21:22:05.036Z,11.60
2023-05-19T21:27:13.481Z,11.58
2023-05-19T21:32:16.838Z,11.58
2023-05-19T21:37:41.952Z,11.57
2023-05-19T21:43:06.086Z,11.56
2023-05-19T21:48:16.643Z,11.54
2023-05-19T21:53:19.323Z,11.55
2023-05-19T21:58:26.914Z,11.57
2023-05-19T22:03:34.622Z,11.59
2023-05-19T22:08:48.018Z,11.57
2023-05-19T22:14:00.435Z,11.55
2023-05-19T22:19:05.665Z,11.55
2023-05-19T22:24:19.505Z,11.55
2023-05-19T22:29:46.866Z,11.55
2023-05-19T22:34:59.029Z,11.53
2023-05-19T22:40:16.643Z,11.51
2023-05-19T22:45:38.103Z,11.47
2023-05-19T22:51:01.519Z,11.43
2023-05-19T22:56:34.173Z,11.41
2023-05-19T23:01:47.734Z,11.36
2023-05-19T23:07:14.943Z,11.33
2023-05-19T23:12:40.587Z,11.29
2023-05-19T23:18:20.686Z,11.26
2023-05-19T23:23:36.072Z,11.26
2023-05-19T23:29:20.315Z,11.23
2023-05-19T23:34:31.191Z,11.19
2023-05-19T23:40:00.012Z,11.18
2023-05-19T23:45:26.876Z,11.16
2023-05-19T23:51:13.598Z,11.13
2023-05-19T23:57:15.917Z,11.10
